createdAt,value
2019-05-06T00:02:20.702Z,6.49
2019-05-06T00:04:54.216Z,6.46
2019-05-06T00:07:25.934Z,6.47
2019-05-06T00:09:57.847Z,6.41
2019-05-06T00:12:30.308Z,6.35
2019-05-06T00:15:04.001Z,6.29
2019-05-06T00:17:35.316Z,6.28
2019-05-06T00:20:08.998Z,6.25
2019-05-06T00:22:43.501Z,6.20
2019-05-06T00:25:19.008Z,6.20
2019-05-06T00:28:09.725Z,6.18
2019-05-06T00:30:43.946Z,6.18
2019-05-06T00:33:15.561Z,6.15
2019-05-06T00:35:47.272Z,6.17
2019-05-06T00:38:19.952Z,6.17
2019-05-06T00:40:54.388Z,6.19
2019-05-06T00:43:27.381Z,6.15
2019-05-06T00:45:59.005Z,6.18
2019-05-06T00:48:30.984Z,6.15
2019-05-06T00:51:04.513Z,6.12
2019-05-06T00:53:38.452Z,6.12
2019-05-06T00:56:10.468Z,6.18
2019-05-06T00:58:43.606Z,6.13
2019-05-06T01:01:26.357Z,6.11
2019-05-06T01:03:50.949Z,6.17
2019-05-06T01:06:24.653Z,6.16
2019-05-06T01:08:56.627Z,6.15
2019-05-06T01:11:28.089Z,6.16
2019-05-06T01:14:05.150Z,6.21
2019-05-06T01:16:36.796Z,6.20
2019-05-06T01:19:08.426Z,6.21
2019-05-06T01:21:39.929Z,6.25
2019-05-06T01:24:14.589Z,6.18
2019-05-06T01:26:45.988Z,6.18
2019-05-06T01:29:19.138Z,6.32
2019-05-06T01:31:51.014Z,6.40
2019-05-06T01:34:24.473Z,6.45
2019-05-06T01:36:56.898Z,6.51
2019-05-06T01:39:59.553Z,6.57
2019-05-06T01:42:36.505Z,6.63
2019-05-06T01:45:10.071Z,6.63
2019-05-06T01:47:43.746Z,6.62
2019-05-06T01:50:15.664Z,6.64
2019-05-06T01:52:47.714Z,6.65
2019-05-06T01:55:19.174Z,6.64
2019-05-06T01:57:51.124Z,6.66
2019-05-06T02:00:24.955Z,6.67
2019-05-06T02:02:56.769Z,6.71
2019-05-06T02:05:28.317Z,6.75
2019-05-06T02:08:00.447Z,6.77
2019-05-06T02:10:31.897Z,6.76
2019-05-06T02:13:04.302Z,6.71
2019-05-06T02:15:36.538Z,6.59
2019-05-06T02:18:08.459Z,6.54
2019-05-06T02:20:44.529Z,6.46
2019-05-06T02:23:19.387Z,6.41
2019-05-06T02:25:54.003Z,6.35
2019-05-06T02:28:27.924Z,6.21
2019-05-06T02:31:18.936Z,6.19
2019-05-06T02:34:18.259Z,6.14
2019-05-06T02:37:01.781Z,6.08
2019-05-06T02:39:34.211Z,6.01
2019-05-06T02:42:08.437Z,5.94
2019-05-06T02:44:40.158Z,5.93
2019-05-06T02:47:35.120Z,5.94
2019-05-06T02:50:13.281Z,5.91
2019-05-06T02:52:44.404Z,5.91
2019-05-06T02:55:17.083Z,5.86
2019-05-06T02:57:48.838Z,5.88
2019-05-06T03:00:23.908Z,5.89
2019-05-06T03:02:55.640Z,5.89
2019-05-06T03:05:27.270Z,5.85
2019-05-06T03:07:58.897Z,5.83
2019-05-06T03:10:32.923Z,5.80
2019-05-06T03:13:05.042Z,5.81
2019-05-06T03:15:36.888Z,5.79
2019-05-06T03:18:09.193Z,5.72
2019-05-06T03:20:58.230Z,5.71
2019-05-06T03:23:34.670Z,5.68
2019-05-06T03:26:06.843Z,5.62
2019-05-06T03:28:43.734Z,5.60
2019-05-06T03:31:16.387Z,5.60
2019-05-06T03:34:05.964Z,5.55
2019-05-06T03:36:27.047Z,5.55
2019-05-06T03:38:56.380Z,5.58
2019-05-06T03:41:27.971Z,5.57
2019-05-06T03:44:03.179Z,5.58
2019-05-06T03:47:10.211Z,5.58
2019-05-06T03:49:49.603Z,5.62
2019-05-06T03:52:18.558Z,5.61
2019-05-06T03:54:53.679Z,5.60
2019-05-06T03:57:26.461Z,5.63
2019-05-06T04:00:00.213Z,5.62
2019-05-06T04:02:33.620Z,5.64
2019-05-06T04:05:06.475Z,5.63
2019-05-06T04:07:38.238Z,5.62
2019-05-06T04:10:13.349Z,5.63
2019-05-06T04:12:45.964Z,5.62
2019-05-06T04:15:18.083Z,5.61
2019-05-06T04:17:54.280Z,5.61
2019-05-06T04:20:35.210Z,5.55
2019-05-06T04:23:28.737Z,5.56
2019-05-06T04:26:23.970Z,5.60
2019-05-06T04:28:55.083Z,5.59
2019-05-06T04:31:27.509Z,5.55
2019-05-06T04:34:09.963Z,5.63
2019-05-06T04:36:35.100Z,5.61
2019-05-06T04:39:07.587Z,5.63
2019-05-06T04:41:39.448Z,5.68
2019-05-06T04:44:13.934Z,5.69
2019-05-06T04:46:44.670Z,5.76
2019-05-06T04:49:17.958Z,5.67
2019-05-06T04:51:49.495Z,5.74
2019-05-06T04:54:26.185Z,5.76
2019-05-06T04:56:55.246Z,5.80
2019-05-06T04:59:26.885Z,5.76
2019-05-06T05:01:58.572Z,5.80
2019-05-06T05:04:32.430Z,5.82
2019-05-06T05:07:03.873Z,5.84
2019-05-06T05:09:35.601Z,5.82
2019-05-06T05:12:13.473Z,5.84
2019-05-06T05:15:04.160Z,5.84
2019-05-06T05:17:48.560Z,5.91
2019-05-06T05:20:35.910Z,5.82
2019-05-06T05:22:53.413Z,5.87
2019-05-06T05:25:25.677Z,5.83
2019-05-06T05:27:57.493Z,5.83
2019-05-06T05:30:32.822Z,5.88
2019-05-06T05:33:04.787Z,5.93
2019-05-06T05:35:37.860Z,5.85
2019-05-06T05:38:09.527Z,5.89
2019-05-06T05:40:43.002Z,5.98
2019-05-06T05:43:22.810Z,6.04
2019-05-06T05:45:54.863Z,6.03
2019-05-06T05:48:42.752Z,6.09
2019-05-06T05:51:14.498Z,6.04
2019-05-06T05:53:46.178Z,5.98
2019-05-06T05:56:18.594Z,5.96
2019-05-06T05:58:53.517Z,5.93
2019-05-06T06:01:26.394Z,6.05
2019-05-06T06:03:58.775Z,6.00
2019-05-06T06:06:33.013Z,5.99
2019-05-06T06:09:06.435Z,5.96
2019-05-06T06:11:59.958Z,6.02
2019-05-06T06:14:53.387Z,5.91
2019-05-06T06:17:48.841Z,5.94
2019-05-06T06:20:38.877Z,5.86
2019-05-06T06:23:25.663Z,5.98
2019-05-06T06:25:57.226Z,6.02
2019-05-06T06:28:29.231Z,6.05
2019-05-06T06:31:23.203Z,5.98
2019-05-06T06:34:03.660Z,6.13
2019-05-06T06:36:48.098Z,6.13
2019-05-06T06:39:23.077Z,6.08
2019-05-06T06:41:54.901Z,6.19
2019-05-06T06:44:29.811Z,6.37
2019-05-06T06:47:02.093Z,6.41
2019-05-06T06:49:33.858Z,6.36
2019-05-06T06:52:11.288Z,6.28
2019-05-06T06:54:43.603Z,6.28
2019-05-06T06:57:32.290Z,6.24
2019-05-06T07:00:23.598Z,6.18
2019-05-06T07:02:59.935Z,6.26
2019-05-06T07:05:42.438Z,6.33
2019-05-06T07:08:14.873Z,6.39
2019-05-06T07:10:46.451Z,6.44
2019-05-06T07:13:19.202Z,6.35
2019-05-06T07:15:51.987Z,6.39
2019-05-06T07:18:23.751Z,6.59
2019-05-06T07:21:14.121Z,6.70
2019-05-06T07:23:45.802Z,6.56
2019-05-06T07:26:19.045Z,6.89
2019-05-06T07:28:52.685Z,6.58
2019-05-06T07:31:26.732Z,6.89
2019-05-06T07:33:58.284Z,6.85
2019-05-06T07:36:32.244Z,6.68
2019-05-06T07:39:06.413Z,6.55
2019-05-06T07:41:45.921Z,6.66
2019-05-06T07:44:45.295Z,6.77
2019-05-06T07:47:33.122Z,6.72
2019-05-06T07:50:05.955Z,6.71
2019-05-06T07:52:37.967Z,6.82
2019-05-06T07:55:12.029Z,6.78
2019-05-06T19:06:25.029Z,8.45
2019-05-06T19:09:19.034Z,8.34
2019-05-06T19:11:54.301Z,8.28
2019-05-06T19:14:26.906Z,8.29
2019-05-06T19:17:02.580Z,8.28
2019-05-06T19:19:34.977Z,8.30
2019-05-06T19:22:07.009Z,8.36
2019-05-06T19:24:42.313Z,8.31
2019-05-06T19:27:13.677Z,8.33
2019-05-06T19:29:45.488Z,8.35
2019-05-06T19:32:17.356Z,8.32
2019-05-06T19:34:49.128Z,8.31
2019-05-06T19:37:23.104Z,8.31
2019-05-06T19:39:55.024Z,8.32
2019-05-06T19:42:26.751Z,8.31
2019-05-06T19:45:02.337Z,8.44
2019-05-06T19:47:34.202Z,8.39
2019-05-06T19:50:06.630Z,8.43
2019-05-06T19:52:39.275Z,8.48
2019-05-06T19:55:12.320Z,8.45
2019-05-06T19:57:45.020Z,8.40
2019-05-06T20:00:18.187Z,8.80
2019-05-06T20:02:52.158Z,9.01
2019-05-06T20:05:46.157Z,8.97
2019-05-06T20:08:25.664Z,8.90
2019-05-06T20:11:33.077Z,8.83
2019-05-06T20:14:04.863Z,8.88
2019-05-06T20:16:37.001Z,8.84
2019-05-06T20:19:08.660Z,8.80
2019-05-06T20:21:42.418Z,8.78
2019-05-06T20:24:14.387Z,8.73
2019-05-06T20:26:46.289Z,8.67
2019-05-06T20:29:17.913Z,8.65
2019-05-06T20:31:50.014Z,8.60
2019-05-06T20:34:22.603Z,8.55
2019-05-06T20:36:54.460Z,8.56
2019-05-06T20:39:26.130Z,8.58
2019-05-06T20:41:58.296Z,8.59
2019-05-06T20:44:32.423Z,8.56
2019-05-06T20:47:04.109Z,8.59
2019-05-06T20:49:38.718Z,8.57
2019-05-06T20:52:12.277Z,8.57
2019-05-06T20:54:43.889Z,8.56
2019-05-06T20:57:15.519Z,8.65
2019-05-06T20:59:47.345Z,8.60
2019-05-06T21:02:18.977Z,8.58
2019-05-06T21:04:50.791Z,8.51
2019-05-06T21:07:23.122Z,8.52
2019-05-06T21:09:54.972Z,8.45
2019-05-06T21:12:27.027Z,8.42
2019-05-06T21:14:58.580Z,8.39
2019-05-06T21:17:32.287Z,8.41
2019-05-06T21:20:05.041Z,8.39
2019-05-06T21:22:36.729Z,8.41
2019-05-06T21:25:08.947Z,8.43
2019-05-06T21:27:42.397Z,8.42
2019-05-06T21:30:15.912Z,8.40
2019-05-06T21:32:47.637Z,8.44
2019-05-06T21:35:19.479Z,8.40
2019-05-06T21:37:52.960Z,8.42
2019-05-06T21:40:24.847Z,8.42
2019-05-06T21:42:57.297Z,8.38
2019-05-06T21:45:30.355Z,8.36
2019-05-06T21:48:02.829Z,8.34
2019-05-06T21:50:34.925Z,8.31
2019-05-06T21:53:06.660Z,8.27
2019-05-06T21:55:38.634Z,8.20
2019-05-06T21:58:12.266Z,8.22
2019-05-06T22:00:52.717Z,8.18
2019-05-06T22:03:24.895Z,8.15
2019-05-06T22:05:57.519Z,8.17
2019-05-06T22:08:30.011Z,8.12
2019-05-06T22:11:02.893Z,8.12
2019-05-06T22:13:36.095Z,8.08
2019-05-06T22:16:07.596Z,8.06
2019-05-06T22:18:39.560Z,8.07
2019-05-06T22:21:22.488Z,8.04
2019-05-06T22:23:59.432Z,8.03
2019-05-06T22:26:32.443Z,8.01
2019-05-06T22:29:05.295Z,7.95
2019-05-06T22:31:36.996Z,7.97
2019-05-06T22:34:08.674Z,7.95
2019-05-06T22:36:40.388Z,7.93
2019-05-06T22:39:13.617Z,7.94
2019-05-06T22:41:46.183Z,7.91
2019-05-06T22:44:18.626Z,7.83
2019-05-06T22:46:50.286Z,7.84
2019-05-06T22:49:22.868Z,7.79
2019-05-06T22:51:55.416Z,7.78
2019-05-06T22:54:26.928Z,7.73
2019-05-06T22:56:58.705Z,7.68
2019-05-06T22:59:30.289Z,7.67
2019-05-06T23:02:19.627Z,7.60
2019-05-06T23:04:54.379Z,7.57
2019-05-06T23:07:26.438Z,7.52
2019-05-06T23:09:58.232Z,7.46
2019-05-06T23:12:32.446Z,7.43
2019-05-06T23:15:04.646Z,7.36
2019-05-06T23:17:36.321Z,7.32
2019-05-06T23:20:09.123Z,7.29
2019-05-06T23:22:42.635Z,7.26
2019-05-06T23:25:14.560Z,7.26
2019-05-06T23:27:46.472Z,7.22
2019-05-06T23:30:18.499Z,7.19
2019-05-06T23:32:50.241Z,7.20
2019-05-06T23:35:22.249Z,7.19
2019-05-06T23:38:33.768Z,7.17
2019-05-06T23:41:39.202Z,7.21
2019-05-06T23:44:47.404Z,7.21
2019-05-06T23:47:54.874Z,7.17
2019-05-06T23:51:02.371Z,7.15
2019-05-06T23:54:09.727Z,7.15
2019-05-06T23:56:43.418Z,7.14
2019-05-06T23:59:15.864Z,7.11
